createdAt,value
2022-12-22T00:01:30.788Z,101220.28
2022-12-22T00:04:19.299Z,101213.67
2022-12-22T00:07:07.656Z,101218.17
2022-12-22T00:09:55.962Z,101217.59
2022-12-22T00:12:44.185Z,101216.10
2022-12-22T00:15:33.659Z,101213.63
2022-12-22T00:18:21.863Z,101215.06
2022-12-22T00:21:10.214Z,101211.93
2022-12-22T00:23:58.617Z,101210.13
2022-12-22T00:26:46.860Z,101210.14
2022-12-22T00:29:35.464Z,101203.52
2022-12-22T00:32:23.920Z,101201.52
2022-12-22T00:35:12.320Z,101194.19
2022-12-22T00:38:00.621Z,101194.50
2022-12-22T00:40:48.653Z,101191.75
2022-12-22T00:43:36.840Z,101194.11
2022-12-22T00:46:27.375Z,101194.86
2022-12-22T00:49:15.709Z,101195.04
2022-12-22T00:52:03.906Z,101191.94
2022-12-22T00:54:51.756Z,101191.04
2022-12-22T00:57:39.999Z,101187.98
2022-12-22T01:00:33.319Z,101180.54
2022-12-22T01:03:21.462Z,101177.98
2022-12-22T01:06:09.852Z,101175.31
2022-12-22T01:08:57.965Z,101172.20
2022-12-22T01:11:46.151Z,101173.53
2022-12-22T01:14:34.588Z,101170.34
2022-12-22T01:17:22.867Z,101169.01
2022-12-22T01:20:11.133Z,101168.23
2022-12-22T01:22:59.688Z,101169.35
2022-12-22T01:25:47.961Z,101167.35
2022-12-22T01:28:35.912Z,101162.30
2022-12-22T01:31:30.060Z,101157.64
2022-12-22T01:34:18.334Z,101150.77
2022-12-22T01:37:06.544Z,101151.05
2022-12-22T01:39:54.677Z,101146.69
2022-12-22T01:42:43.050Z,101145.07
2022-12-22T01:45:36.944Z,101139.36
2022-12-22T01:48:25.776Z,101138.59
2022-12-22T01:51:14.111Z,101139.89
2022-12-22T01:54:02.380Z,101138.86
2022-12-22T01:56:50.202Z,101138.25
2022-12-22T01:59:38.551Z,101136.97
2022-12-22T02:02:27.075Z,101140.15
2022-12-22T02:05:15.702Z,101137.45
2022-12-22T02:08:10.349Z,101139.64
2022-12-22T02:11:09.418Z,101141.79
2022-12-22T02:13:58.667Z,101137.20
2022-12-22T02:16:48.477Z,101133.88
2022-12-22T02:19:38.896Z,101131.84
2022-12-22T02:22:29.077Z,101130.39
2022-12-22T02:25:19.143Z,101130.21
2022-12-22T02:28:07.506Z,101135.08
2022-12-22T02:30:55.835Z,101137.92
2022-12-22T02:33:44.027Z,101139.98
2022-12-22T02:36:33.151Z,101138.20
2022-12-22T02:39:23.483Z,101138.64
2022-12-22T02:42:13.494Z,101138.53
2022-12-22T02:45:04.371Z,101133.48
2022-12-22T02:47:53.134Z,101131.63
2022-12-22T02:50:41.846Z,101126.95
2022-12-22T02:53:30.013Z,101129.44
2022-12-22T02:56:18.797Z,101127.52
2022-12-22T02:59:07.036Z,101126.58
2022-12-22T03:01:55.246Z,101129.91
2022-12-22T03:04:43.453Z,101121.80
2022-12-22T03:07:31.672Z,101118.08
2022-12-22T03:10:19.809Z,101122.36
2022-12-22T03:13:08.024Z,101119.78
2022-12-22T03:15:56.423Z,101114.48
2022-12-22T03:18:44.683Z,101119.09
2022-12-22T03:21:33.050Z,101119.46
2022-12-22T03:24:20.995Z,101115.14
2022-12-22T03:26:51.648Z,101120.67
2022-12-22T03:29:22.333Z,101125.92
2022-12-22T03:31:53.218Z,101126.66
2022-12-22T03:34:24.019Z,101127.56
2022-12-22T03:36:54.739Z,101125.33
2022-12-22T03:39:25.530Z,101121.42
2022-12-22T03:42:13.601Z,101120.55
2022-12-22T03:45:02.006Z,101119.48
2022-12-22T03:47:33.578Z,101110.55
2022-12-22T03:50:04.390Z,101118.63
2022-12-22T03:52:35.161Z,101117.25
2022-12-22T03:55:06.054Z,101120.09
2022-12-22T03:57:36.667Z,101120.27
2022-12-22T04:00:09.102Z,101123.69
2022-12-22T04:02:40.074Z,101122.20
2022-12-22T04:05:11.284Z,101125.96
2022-12-22T04:07:42.082Z,101124.28
2022-12-22T04:10:30.118Z,101122.64
2022-12-22T04:13:00.893Z,101125.09
2022-12-22T04:15:32.293Z,101125.34
2022-12-22T04:18:03.180Z,101124.59
2022-12-22T04:20:33.967Z,101127.66
2022-12-22T04:23:04.982Z,101128.29
2022-12-22T04:25:35.653Z,101124.36
2022-12-22T04:28:06.534Z,101118.08
2022-12-22T04:30:37.301Z,101117.16
2022-12-22T04:33:07.975Z,101114.48
2022-12-22T04:35:38.642Z,101117.89
2022-12-22T04:38:09.423Z,101120.44
2022-12-22T04:40:40.252Z,101124.93
2022-12-22T04:43:11.036Z,101125.73
2022-12-22T04:45:41.741Z,101125.08
2022-12-22T04:48:12.651Z,101124.63
2022-12-22T04:50:43.815Z,101119.88
2022-12-22T04:53:14.563Z,101123.52
2022-12-22T04:55:47.819Z,101129.05
2022-12-22T04:58:18.484Z,101129.36
2022-12-22T05:00:49.276Z,101129.40
2022-12-22T05:03:20.281Z,101133.11
2022-12-22T05:05:52.006Z,101131.83
2022-12-22T05:08:22.993Z,101135.70
2022-12-22T05:10:53.923Z,101134.43
2022-12-22T05:13:24.843Z,101136.52
2022-12-22T05:15:55.753Z,101135.23
2022-12-22T05:18:26.642Z,101133.95
2022-12-22T05:20:57.361Z,101140.05
2022-12-22T05:23:28.180Z,101141.09
2022-12-22T05:25:59.117Z,101134.39
2022-12-22T05:28:29.967Z,101137.34
2022-12-22T05:31:03.900Z,101137.14
2022-12-22T05:33:34.860Z,101142.71
2022-12-22T05:36:06.705Z,101144.21
2022-12-22T05:38:37.476Z,101149.41
2022-12-22T05:41:08.690Z,101148.48
2022-12-22T05:43:40.386Z,101147.39
2022-12-22T05:46:12.846Z,101149.87
2022-12-22T05:48:43.777Z,101146.54
2022-12-22T05:51:14.685Z,101143.50
2022-12-22T05:53:45.645Z,101147.83
2022-12-22T05:56:16.388Z,101144.48
2022-12-22T05:58:47.731Z,101145.04
2022-12-22T06:01:18.430Z,101147.94
2022-12-22T06:03:51.254Z,101150.94
2022-12-22T06:06:25.430Z,101152.77
2022-12-22T06:08:56.239Z,101154.12
2022-12-22T06:11:27.042Z,101148.65
2022-12-22T06:13:57.743Z,101146.81
2022-12-22T06:16:28.740Z,101146.27
2022-12-22T06:18:59.668Z,101144.64
2022-12-22T06:21:31.311Z,101145.61
2022-12-22T06:24:02.102Z,101146.19
2022-12-22T06:26:32.854Z,101150.30
2022-12-22T06:29:03.494Z,101155.11
2022-12-22T06:31:34.409Z,101156.52
2022-12-22T06:34:05.825Z,101155.15
2022-12-22T06:36:36.657Z,101158.60
2022-12-22T06:39:07.682Z,101159.81
2022-12-22T06:41:55.698Z,101163.23
2022-12-22T06:44:30.737Z,101165.36
2022-12-22T06:47:02.794Z,101156.59
2022-12-22T06:49:33.672Z,101152.76
2022-12-22T06:52:04.830Z,101149.39
2022-12-22T06:54:35.567Z,101145.36
2022-12-22T06:57:06.310Z,101144.02
2022-12-22T06:59:37.297Z,101145.70
2022-12-22T07:02:09.493Z,101149.33
2022-12-22T07:04:41.679Z,101147.78
2022-12-22T07:07:12.493Z,101150.77
2022-12-22T07:09:43.285Z,101148.19
2022-12-22T07:12:14.462Z,101146.10
2022-12-22T07:14:45.984Z,101150.42
2022-12-22T07:17:17.101Z,101149.14
2022-12-22T07:19:49.371Z,101149.02
2022-12-22T07:22:27.575Z,101148.45
2022-12-22T07:25:00.836Z,101151.98
2022-12-22T07:27:37.412Z,101150.56
2022-12-22T07:30:09.864Z,101150.13
2022-12-22T07:32:42.698Z,101152.67
2022-12-22T07:35:15.396Z,101154.91
2022-12-22T07:37:52.860Z,101155.63
2022-12-22T07:40:25.181Z,101152.87
2022-12-22T07:42:59.932Z,101154.16
2022-12-22T07:45:36.842Z,101154.18
2022-12-22T07:48:29.516Z,101153.83
2022-12-22T07:51:05.398Z,101155.98
2022-12-22T07:53:40.451Z,101162.92
2022-12-22T07:56:13.849Z,101157.30
2022-12-22T07:58:47.544Z,101155.83
2022-12-22T08:01:27.361Z,101154.34
2022-12-22T08:04:00.933Z,101155.04
2022-12-22T08:06:32.775Z,101155.61
2022-12-22T08:09:04.899Z,101158.14
2022-12-22T08:11:37.286Z,101158.33
2022-12-22T08:14:11.752Z,101161.65
2022-12-22T08:16:45.195Z,101163.05
2022-12-22T08:19:18.488Z,101163.88
2022-12-22T08:21:52.775Z,101166.77
2022-12-22T08:31:23.867Z,101160.31
2022-12-22T08:33:54.938Z,101163.36
2022-12-22T08:36:25.960Z,101163.41
2022-12-22T08:38:57.043Z,101157.31
2022-12-22T08:41:41.828Z,101149.16
2022-12-22T08:44:12.731Z,101147.20
2022-12-22T08:46:43.669Z,101147.89
2022-12-22T08:49:14.598Z,101144.47
2022-12-22T08:51:45.731Z,101140.48
2022-12-22T09:01:20.419Z,101130.11
2022-12-22T09:03:52.157Z,101130.58
2022-12-22T09:06:27.247Z,101128.67
2022-12-22T09:08:59.229Z,101124.77
2022-12-22T09:11:30.643Z,101119.89
2022-12-22T09:14:02.112Z,101115.62
2022-12-22T09:16:34.157Z,101109.55
2022-12-22T09:19:05.215Z,101107.20
2022-12-22T09:21:36.460Z,101111.55
2022-12-22T09:24:08.634Z,101117.62
2022-12-22T09:26:39.553Z,101116.77
2022-12-22T09:29:10.951Z,101115.58
2022-12-22T09:31:43.029Z,101109.34
2022-12-22T09:34:18.038Z,101107.13
2022-12-22T09:36:49.482Z,101104.40
2022-12-22T09:39:25.117Z,101101.02
2022-12-22T09:41:59.664Z,101098.83
2022-12-22T09:44:32.963Z,101099.66
2022-12-22T09:47:18.218Z,101097.75
2022-12-22T09:49:49.028Z,101097.77
2022-12-22T09:52:29.052Z,101086.48
2022-12-22T09:54:59.933Z,101080.73
2022-12-22T09:57:32.275Z,101082.98
2022-12-22T10:00:08.175Z,101080.12
2022-12-22T10:02:41.481Z,101074.30
2022-12-22T10:05:19.421Z,101071.54
2022-12-22T10:07:50.658Z,101072.36
2022-12-22T10:10:25.500Z,101063.63
2022-12-22T10:13:00.211Z,101057.30
2022-12-22T10:15:35.119Z,101058.96
2022-12-22T10:18:12.379Z,101049.77
2022-12-22T10:20:46.772Z,101043.71
2022-12-22T10:23:21.388Z,101037.13
2022-12-22T10:26:32.192Z,101030.84
2022-12-22T10:28:55.184Z,101028.48
2022-12-22T10:31:29.425Z,101018.36
2022-12-22T10:34:11.992Z,101015.59
2022-12-22T10:36:48.611Z,101017.69
2022-12-22T10:39:23.018Z,101017.58
2022-12-22T10:42:01.756Z,101018.63
2022-12-22T10:44:35.674Z,101012.27
2022-12-22T10:47:17.722Z,101011.42
2022-12-22T10:52:33.810Z,101008.70
2022-12-22T10:55:22.178Z,101005.89
2022-12-22T10:58:12.708Z,101009.27
2022-12-22T11:00:45.028Z,101011.70
2022-12-22T11:03:53.318Z,101005.33
2022-12-22T11:06:24.254Z,100999.56
2022-12-22T11:09:01.517Z,100993.42
2022-12-22T11:11:49.844Z,100990.96
2022-12-22T11:14:24.278Z,100988.42
2022-12-22T11:16:56.951Z,100983.61
2022-12-22T11:19:34.004Z,100978.88
2022-12-22T11:22:06.931Z,100974.45
2022-12-22T11:24:40.430Z,100965.17
2022-12-22T11:27:18.132Z,100962.91
2022-12-22T11:30:04.889Z,100958.86
2022-12-22T11:32:52.081Z,100957.61
2022-12-22T11:35:27.531Z,100959.58
2022-12-22T11:38:01.266Z,100960.83
2022-12-22T11:40:33.449Z,100956.40
2022-12-22T11:43:07.697Z,100957.26
2022-12-22T11:45:43.568Z,100955.08
2022-12-22T11:48:36.283Z,100951.71
2022-12-22T11:51:12.804Z,100951.36
2022-12-22T11:53:55.714Z,100951.84
2022-12-22T11:56:26.710Z,100948.48
2022-12-22T11:59:04.235Z,100955.65
2022-12-22T12:01:49.853Z,100961.33
2022-12-22T12:04:52.957Z,100958.11
2022-12-22T12:07:27.536Z,100954.73
2022-12-22T12:10:03.983Z,100947.66
2022-12-22T12:12:36.467Z,100939.84
2022-12-22T12:15:12.727Z,100945.27
2022-12-22T12:17:46.367Z,100948.04
2022-12-22T12:20:37.846Z,100945.08
2022-12-22T12:23:11.713Z,100946.11
2022-12-22T12:25:42.750Z,100946.59
2022-12-22T12:28:20.037Z,100949.66
2022-12-22T12:30:54.021Z,100953.26
2022-12-22T12:33:27.493Z,100951.48
2022-12-22T12:36:01.026Z,100949.79
2022-12-22T12:39:06.437Z,100944.44
2022-12-22T12:41:26.545Z,100939.30
2022-12-22T12:43:58.158Z,100930.20
2022-12-22T12:46:51.474Z,100927.52
2022-12-22T12:49:39.550Z,100930.31
2022-12-22T12:52:10.767Z,100931.32
2022-12-22T12:54:46.671Z,100932.20
2022-12-22T12:57:31.910Z,100932.33
2022-12-22T13:00:02.857Z,100935.69
2022-12-22T13:02:39.301Z,100938.60
2022-12-22T13:05:29.415Z,100932.34
2022-12-22T13:11:52.649Z,100934.99
2022-12-22T13:14:35.487Z,100936.23
2022-12-22T13:17:19.933Z,100933.89
2022-12-22T13:20:08.571Z,100936.45
2022-12-22T13:22:43.651Z,100931.88
2022-12-22T13:25:19.504Z,100930.80
2022-12-22T13:27:56.094Z,100926.84
2022-12-22T13:30:27.121Z,100922.90
2022-12-22T13:33:05.448Z,100919.10
2022-12-22T13:43:11.758Z,100902.05
2022-12-22T13:45:43.023Z,100901.94
2022-12-22T13:48:22.479Z,100905.13
2022-12-22T13:50:54.317Z,100907.66
2022-12-22T13:56:21.940Z,100909.85
2022-12-22T13:58:54.659Z,100900.79
2022-12-22T14:01:25.581Z,100895.63
2022-12-22T14:04:01.762Z,100893.27
2022-12-22T14:06:34.236Z,100893.25
2022-12-22T14:09:15.454Z,100893.02
2022-12-22T14:11:51.698Z,100893.86
2022-12-22T14:14:28.118Z,100892.63
2022-12-22T14:16:59.566Z,100890.34
2022-12-22T14:19:32.175Z,100893.65
2022-12-22T14:22:05.304Z,100894.89
2022-12-22T14:24:38.619Z,100895.34
2022-12-22T14:27:10.766Z,100893.42
2022-12-22T14:29:41.512Z,100894.40
2022-12-22T14:32:12.503Z,100897.41
2022-12-22T14:34:43.386Z,100898.73
2022-12-22T14:37:14.151Z,100892.30
2022-12-22T14:39:45.027Z,100884.80
2022-12-22T14:42:15.835Z,100884.58
2022-12-22T14:44:47.267Z,100883.55
2022-12-22T14:47:19.747Z,100886.77
2022-12-22T14:49:51.701Z,100882.59
2022-12-22T14:52:26.828Z,100876.39
2022-12-22T14:54:58.002Z,100873.88
2022-12-22T14:57:32.610Z,100874.71
2022-12-22T15:00:05.729Z,100874.17
2022-12-22T15:02:39.860Z,100872.09
2022-12-22T15:05:14.481Z,100871.95
2022-12-22T15:10:39.402Z,100873.37
2022-12-22T15:13:12.471Z,100869.17
2022-12-22T15:15:46.635Z,100872.40
2022-12-22T15:18:51.782Z,100869.63
2022-12-22T15:21:31.493Z,100873.44
2022-12-22T15:25:40.180Z,100875.96
2022-12-22T15:27:05.829Z,100876.45
2022-12-22T15:29:38.831Z,100877.12
2022-12-22T15:32:26.541Z,100878.77
2022-12-22T15:34:58.641Z,100881.07
2022-12-22T15:37:29.675Z,100877.56
2022-12-22T15:40:00.569Z,100877.15
2022-12-22T15:42:33.027Z,100873.20
2022-12-22T15:45:09.673Z,100874.46
2022-12-22T15:51:47.045Z,100875.36
2022-12-22T15:58:44.975Z,100882.22
2022-12-22T16:01:24.970Z,100888.27
2022-12-22T16:04:18.601Z,100888.48
2022-12-22T16:06:52.855Z,100894.80
2022-12-22T16:09:25.333Z,100895.85
2022-12-22T16:11:57.052Z,100893.52
2022-12-22T16:14:30.245Z,100894.23
2022-12-22T16:17:04.681Z,100894.25
2022-12-22T16:19:35.537Z,100893.80
2022-12-22T16:22:06.218Z,100893.14
2022-12-22T16:24:42.149Z,100892.36
2022-12-22T16:27:29.045Z,100891.17
2022-12-22T16:30:03.248Z,100889.71
2022-12-22T16:32:34.563Z,100892.76
2022-12-22T16:35:15.256Z,100891.90
2022-12-22T16:37:46.076Z,100889.66
2022-12-22T16:40:18.302Z,100891.35
2022-12-22T16:45:39.191Z,100887.55
2022-12-22T16:48:13.314Z,100884.86
2022-12-22T16:50:45.582Z,100877.69
2022-12-22T16:53:16.546Z,100871.14
2022-12-22T16:55:47.198Z,100874.54
2022-12-22T16:58:17.914Z,100878.80
2022-12-22T17:00:48.780Z,100881.73
2022-12-22T17:03:20.416Z,100878.41
2022-12-22T17:05:52.124Z,100878.18
2022-12-22T17:08:24.015Z,100882.45
2022-12-22T17:10:54.993Z,100875.73
2022-12-22T17:13:27.389Z,100880.17
2022-12-22T17:15:58.430Z,100877.33
2022-12-22T17:18:45.970Z,100879.31
2022-12-22T17:24:38.935Z,100873.98
2022-12-22T17:27:09.549Z,100873.77
2022-12-22T17:29:40.510Z,100873.73
2022-12-22T17:32:12.202Z,100871.28
2022-12-22T17:34:43.034Z,100870.40
2022-12-22T17:37:16.598Z,100869.77
2022-12-22T17:39:47.775Z,100866.79
2022-12-22T17:42:21.902Z,100860.77
2022-12-22T17:44:53.052Z,100864.98
2022-12-22T17:47:32.265Z,100864.52
2022-12-22T17:50:04.438Z,100862.13
2022-12-22T17:52:35.252Z,100861.88
2022-12-22T17:55:06.721Z,100859.05
2022-12-22T17:57:37.727Z,100865.10
2022-12-22T18:00:17.906Z,100858.53
2022-12-22T18:02:49.522Z,100855.23
2022-12-22T18:05:21.331Z,100850.70
2022-12-22T18:07:52.215Z,100843.42
2022-12-22T18:10:25.929Z,100840.46
2022-12-22T18:12:57.634Z,100838.02
2022-12-22T18:15:30.744Z,100831.58
2022-12-22T18:18:02.060Z,100827.14
2022-12-22T18:20:32.984Z,100832.88
2022-12-22T18:23:03.750Z,100831.86
2022-12-22T18:25:34.527Z,100834.77
2022-12-22T18:28:05.604Z,100838.86
2022-12-22T18:30:37.142Z,100842.33
2022-12-22T18:33:08.404Z,100843.39
2022-12-22T18:35:49.922Z,100840.04
2022-12-22T18:39:32.093Z,100841.70
2022-12-22T18:41:59.550Z,100850.92
2022-12-22T18:44:31.780Z,100847.29
2022-12-22T18:47:13.110Z,100848.23
2022-12-22T18:49:46.095Z,100850.04
2022-12-22T18:52:46.306Z,100851.27
2022-12-22T18:55:26.420Z,100850.98
2022-12-22T18:57:58.328Z,100851.48
2022-12-22T19:00:30.417Z,100853.94
2022-12-22T19:03:05.376Z,100852.73
2022-12-22T19:05:41.411Z,100854.71
2022-12-22T19:08:14.074Z,100853.39
2022-12-22T19:10:46.422Z,100855.74
2022-12-22T19:13:21.831Z,100856.07
2022-12-22T19:15:52.722Z,100858.09
2022-12-22T19:18:27.020Z,100860.31
2022-12-22T19:20:58.402Z,100857.84
2022-12-22T19:23:29.187Z,100856.18
2022-12-22T19:26:08.065Z,100850.53
2022-12-22T19:28:40.353Z,100847.27
2022-12-22T19:31:13.190Z,100844.31
2022-12-22T19:33:44.435Z,100840.28
2022-12-22T19:36:16.663Z,100837.77
2022-12-22T19:38:50.830Z,100826.81
2022-12-22T19:41:27.524Z,100825.45
2022-12-22T19:43:58.383Z,100827.41
2022-12-22T19:46:32.714Z,100829.20
2022-12-22T19:49:49.027Z,100832.43
2022-12-22T19:53:02.853Z,100830.40
2022-12-22T19:56:04.666Z,100836.12
2022-12-22T19:58:37.640Z,100840.59
2022-12-22T20:01:11.728Z,100842.01
2022-12-22T20:03:42.555Z,100837.02
2022-12-22T20:06:13.217Z,100833.42
2022-12-22T20:08:44.785Z,100832.51
2022-12-22T20:11:16.606Z,100833.62
2022-12-22T20:13:47.616Z,100829.08
2022-12-22T20:16:18.543Z,100831.98
2022-12-22T20:18:49.483Z,100832.98
2022-12-22T20:21:22.452Z,100830.36
2022-12-22T20:23:53.200Z,100827.06
2022-12-22T20:26:25.073Z,100828.98
2022-12-22T20:28:55.951Z,100826.31
2022-12-22T20:31:26.822Z,100828.45
2022-12-22T20:34:16.312Z,100832.02
2022-12-22T20:37:06.102Z,100838.27
2022-12-22T20:40:00.178Z,100836.94
2022-12-22T20:42:38.080Z,100832.63
2022-12-22T20:45:10.567Z,100833.58
2022-12-22T20:47:43.376Z,100838.38
2022-12-22T20:50:24.288Z,100839.13
2022-12-22T20:52:55.886Z,100842.91
2022-12-22T20:55:42.696Z,100836.73
2022-12-22T20:58:17.141Z,100836.00
2022-12-22T21:00:48.600Z,100842.61
2022-12-22T21:03:19.788Z,100839.24
2022-12-22T21:05:50.906Z,100842.70
2022-12-22T21:08:22.488Z,100844.11
2022-12-22T21:10:53.976Z,100840.35
2022-12-22T21:13:24.756Z,100838.52
2022-12-22T21:15:55.523Z,100836.20
2022-12-22T21:18:26.257Z,100832.10
2022-12-22T21:20:57.245Z,100835.09
2022-12-22T21:23:28.140Z,100832.03
2022-12-22T21:25:58.886Z,100830.19
2022-12-22T21:28:31.356Z,100833.04
2022-12-22T21:31:02.418Z,100829.84
2022-12-22T21:33:33.294Z,100826.61
2022-12-22T21:36:04.629Z,100823.03
2022-12-22T21:38:35.389Z,100822.98
2022-12-22T21:41:07.330Z,100819.73
2022-12-22T21:43:38.269Z,100820.80
2022-12-22T21:46:11.834Z,100814.86
2022-12-22T21:48:42.680Z,100815.98
2022-12-22T21:51:14.233Z,100810.02
2022-12-22T21:53:45.019Z,100810.29
2022-12-22T21:56:19.066Z,100811.71
2022-12-22T21:58:49.967Z,100812.30
2022-12-22T22:01:20.962Z,100813.33
2022-12-22T22:03:52.004Z,100812.73
2022-12-22T22:06:22.885Z,100814.73
2022-12-22T22:08:53.662Z,100807.37
2022-12-22T22:11:25.767Z,100804.15
2022-12-22T22:13:56.531Z,100802.79
2022-12-22T22:16:27.393Z,100800.89
2022-12-22T22:18:58.174Z,100798.27
2022-12-22T22:21:28.915Z,100796.76
2022-12-22T22:23:59.757Z,100798.70
2022-12-22T22:26:30.407Z,100794.05
2022-12-22T22:29:01.161Z,100790.81
2022-12-22T22:31:31.938Z,100782.95
2022-12-22T22:34:02.609Z,100779.73
2022-12-22T22:36:33.373Z,100777.13
2022-12-22T22:39:04.089Z,100773.10
2022-12-22T22:41:40.983Z,100773.70
2022-12-22T22:44:13.695Z,100778.03
2022-12-22T22:46:44.634Z,100770.48
2022-12-22T22:49:15.630Z,100772.98
2022-12-22T22:51:46.400Z,100770.93
2022-12-22T22:54:17.238Z,100771.15
2022-12-22T22:56:47.947Z,100770.63
2022-12-22T22:59:18.687Z,100774.21
2022-12-22T23:01:49.555Z,100769.20
2022-12-22T23:04:20.287Z,100759.09
2022-12-22T23:06:51.277Z,100757.61
2022-12-22T23:09:22.000Z,100753.86
2022-12-22T23:11:53.601Z,100753.09
2022-12-22T23:14:25.768Z,100752.56
2022-12-22T23:16:56.672Z,100749.08
2022-12-22T23:19:27.477Z,100744.98
2022-12-22T23:21:58.168Z,100741.85
2022-12-22T23:24:28.805Z,100736.88
2022-12-22T23:26:59.960Z,100731.98
2022-12-22T23:29:30.707Z,100733.61
2022-12-22T23:32:01.632Z,100733.02
2022-12-22T23:34:32.484Z,100732.40
2022-12-22T23:37:03.367Z,100734.58
2022-12-22T23:39:33.959Z,100731.88
2022-12-22T23:42:05.003Z,100728.42
2022-12-22T23:44:35.724Z,100722.49
2022-12-22T23:47:07.128Z,100718.64
2022-12-22T23:49:37.937Z,100710.80
2022-12-22T23:52:08.657Z,100712.07
2022-12-22T23:54:39.545Z,100708.62
2022-12-22T23:57:10.376Z,100703.09
2022-12-22T23:59:41.111Z,100704.17
